Riverside, Oregon
Current Conditions -  °F | °C
As of 4:53 PM on Saturday 25 Oct 2014 (Local Time) from KBNO Reporting Station
Broken Clouds Broken Clouds  
Wind Chill: 59°   Ceiling: 7500
Heat Index: 59°   Visibility: 10mi
Dew Point: 32°   Wind: 29mph
Humidity: 36%   Direction: 180°S
Pressure: 29.77"   Gusts: 37mph
Location:  43.54°N, 118.16°W
Report Text: KBNO 252353Z AUTO 18025G32KT 10SM BKN075 15/00 A2977 RMK AO2 PK WND 19037/2258 SLP073 T01500000 10183 20133 56004
Loading
Personal Weather Stations






























Interactive Weather Map
Tropical Storm Tracking
New forecast layout! Learn more

10-Day Weather Forecast

Advertisements
Track Severe Weather on mobile